sensor_id;sensor_type;location;lat;lon;timestamp;P1;durP1;ratioP1;P2;durP2;ratioP2
17566;SDS011;8901;52.088;5.084;2022-09-03T00:02:30;15.30;;;14.20;;
17566;SDS011;8901;52.088;5.084;2022-09-03T00:05:03;15.40;;;14.30;;
17566;SDS011;8901;52.088;5.084;2022-09-03T00:07:35;15.00;;;14.00;;
17566;SDS011;8901;52.088;5.084;2022-09-03T00:10:10;14.82;;;13.82;;
17566;SDS011;8901;52.088;5.084;2022-09-03T00:12:41;15.45;;;14.30;;
17566;SDS011;8901;52.088;5.084;2022-09-03T00:15:11;15.95;;;14.55;;
17566;SDS011;8901;52.088;5.084;2022-09-03T00:17:43;15.52;;;14.52;;
17566;SDS011;8901;52.088;5.084;2022-09-03T00:20:14;15.43;;;14.40;;
17566;SDS011;8901;52.088;5.084;2022-09-03T00:22:46;15.63;;;14.57;;
17566;SDS011;8901;52.088;5.084;2022-09-03T00:25:17;15.30;;;14.40;;
17566;SDS011;8901;52.088;5.084;2022-09-03T00:27:48;15.52;;;14.45;;
17566;SDS011;8901;52.088;5.084;2022-09-03T00:30:19;15.25;;;14.27;;
17566;SDS011;8901;52.088;5.084;2022-09-03T00:32:49;15.60;;;14.40;;
17566;SDS011;8901;52.088;5.084;2022-09-03T00:35:22;15.75;;;14.55;;
17566;SDS011;8901;52.088;5.084;2022-09-03T00:37:52;15.15;;;14.10;;
17566;SDS011;8901;52.088;5.084;2022-09-03T00:40:30;16.00;;;14.82;;
17566;SDS011;8901;52.088;5.084;2022-09-03T00:43:06;15.50;;;14.50;;
17566;SDS011;8901;52.088;5.084;2022-09-03T00:45:45;15.55;;;14.45;;
17566;SDS011;8901;52.088;5.084;2022-09-03T00:48:22;15.52;;;14.45;;
17566;SDS011;8901;52.088;5.084;2022-09-03T00:50:57;15.65;;;14.60;;
17566;SDS011;8901;52.088;5.084;2022-09-03T00:53:37;15.35;;;14.20;;
17566;SDS011;8901;52.088;5.084;2022-09-03T00:56:12;15.13;;;14.18;;
17566;SDS011;8901;52.088;5.084;2022-09-03T00:58:53;15.70;;;14.50;;
17566;SDS011;8901;52.088;5.084;2022-09-03T01:01:30;14.55;;;13.63;;
17566;SDS011;8901;52.088;5.084;2022-09-03T01:04:09;15.23;;;14.27;;
17566;SDS011;8901;52.088;5.084;2022-09-03T01:06:53;16.27;;;14.90;;
17566;SDS011;8901;52.088;5.084;2022-09-03T01:09:32;14.80;;;13.90;;
17566;SDS011;8901;52.088;5.084;2022-09-03T01:12:17;15.27;;;14.07;;
17566;SDS011;8901;52.088;5.084;2022-09-03T01:14:55;15.65;;;14.65;;
17566;SDS011;8901;52.088;5.084;2022-09-03T01:17:28;15.40;;;14.25;;
17566;SDS011;8901;52.088;5.084;2022-09-03T01:20:06;15.25;;;14.25;;
17566;SDS011;8901;52.088;5.084;2022-09-03T01:26:17;15.52;;;14.48;;
17566;SDS011;8901;52.088;5.084;2022-09-03T01:29:00;15.32;;;14.43;;
17566;SDS011;8901;52.088;5.084;2022-09-03T01:31:37;15.77;;;14.57;;
17566;SDS011;8901;52.088;5.084;2022-09-03T01:34:16;15.70;;;14.57;;
17566;SDS011;8901;52.088;5.084;2022-09-03T01:36:53;16.52;;;15.00;;
17566;SDS011;8901;52.088;5.084;2022-09-03T01:39:33;15.65;;;14.65;;
17566;SDS011;8901;52.088;5.084;2022-09-03T01:42:08;15.30;;;14.20;;
17566;SDS011;8901;52.088;5.084;2022-09-03T01:44:55;15.55;;;14.30;;
17566;SDS011;8901;52.088;5.084;2022-09-03T01:47:40;15.65;;;14.43;;
17566;SDS011;8901;52.088;5.084;2022-09-03T01:50:19;15.15;;;14.25;;
17566;SDS011;8901;52.088;5.084;2022-09-03T01:53:00;15.95;;;14.80;;
17566;SDS011;8901;52.088;5.084;2022-09-03T01:55:35;16.60;;;15.20;;
17566;SDS011;8901;52.088;5.084;2022-09-03T01:58:10;16.05;;;14.95;;
17566;SDS011;8901;52.088;5.084;2022-09-03T02:00:44;15.13;;;14.23;;
17566;SDS011;8901;52.088;5.084;2022-09-03T02:03:22;15.10;;;14.10;;
17566;SDS011;8901;52.088;5.084;2022-09-03T02:05:50;15.40;;;14.50;;
17566;SDS011;8901;52.088;5.084;2022-09-03T02:08:17;15.65;;;14.55;;
17566;SDS011;8901;52.088;5.084;2022-09-03T02:10:45;15.43;;;14.32;;
17566;SDS011;8901;52.088;5.084;2022-09-03T02:13:15;15.55;;;14.40;;
17566;SDS011;8901;52.088;5.084;2022-09-03T02:15:47;15.52;;;14.52;;
17566;SDS011;8901;52.088;5.084;2022-09-03T02:18:17;15.23;;;14.20;;
17566;SDS011;8901;52.088;5.084;2022-09-03T02:20:45;14.95;;;13.88;;
17566;SDS011;8901;52.088;5.084;2022-09-03T02:23:14;15.80;;;14.70;;
17566;SDS011;8901;52.088;5.084;2022-09-03T02:25:43;15.43;;;14.45;;
17566;SDS011;8901;52.088;5.084;2022-09-03T02:28:12;15.23;;;14.20;;
17566;SDS011;8901;52.088;5.084;2022-09-03T02:30:40;14.90;;;13.85;;
17566;SDS011;8901;52.088;5.084;2022-09-03T02:33:09;15.50;;;14.50;;
17566;SDS011;8901;52.088;5.084;2022-09-03T02:35:36;15.32;;;14.32;;
17566;SDS011;8901;52.088;5.084;2022-09-03T02:38:10;15.25;;;14.30;;
17566;SDS011;8901;52.088;5.084;2022-09-03T02:40:39;14.55;;;13.63;;
17566;SDS011;8901;52.088;5.084;2022-09-03T02:43:07;14.90;;;13.88;;
17566;SDS011;8901;52.088;5.084;2022-09-03T02:45:39;15.32;;;14.20;;
17566;SDS011;8901;52.088;5.084;2022-09-03T02:48:11;15.13;;;13.80;;
17566;SDS011;8901;52.088;5.084;2022-09-03T02:50:42;14.93;;;14.02;;
17566;SDS011;8901;52.088;5.084;2022-09-03T02:53:09;15.65;;;14.55;;
17566;SDS011;8901;52.088;5.084;2022-09-03T02:55:36;15.93;;;14.65;;
17566;SDS011;8901;52.088;5.084;2022-09-03T02:58:02;14.80;;;13.90;;
17566;SDS011;8901;52.088;5.084;2022-09-03T03:00:31;15.23;;;13.85;;
17566;SDS011;8901;52.088;5.084;2022-09-03T03:02:58;15.07;;;13.90;;
17566;SDS011;8901;52.088;5.084;2022-09-03T03:05:29;14.68;;;13.55;;
17566;SDS011;8901;52.088;5.084;2022-09-03T03:08:00;14.85;;;13.75;;
17566;SDS011;8901;52.088;5.084;2022-09-03T03:10:27;15.27;;;14.15;;
17566;SDS011;8901;52.088;5.084;2022-09-03T03:12:55;15.23;;;14.02;;
17566;SDS011;8901;52.088;5.084;2022-09-03T03:15:21;15.00;;;13.88;;
17566;SDS011;8901;52.088;5.084;2022-09-03T03:17:48;15.50;;;14.05;;
17566;SDS011;8901;52.088;5.084;2022-09-03T03:20:15;14.98;;;13.88;;
17566;SDS011;8901;52.088;5.084;2022-09-03T03:22:43;14.35;;;13.32;;
17566;SDS011;8901;52.088;5.084;2022-09-03T03:25:10;14.25;;;13.35;;
17566;SDS011;8901;52.088;5.084;2022-09-03T03:27:37;14.35;;;13.30;;
17566;SDS011;8901;52.088;5.084;2022-09-03T03:30:06;14.65;;;13.68;;
17566;SDS011;8901;52.088;5.084;2022-09-03T03:32:34;14.25;;;13.25;;
17566;SDS011;8901;52.088;5.084;2022-09-03T03:35:02;14.35;;;13.45;;
17566;SDS011;8901;52.088;5.084;2022-09-03T03:37:30;14.90;;;13.90;;
17566;SDS011;8901;52.088;5.084;2022-09-03T03:39:59;14.80;;;13.80;;
17566;SDS011;8901;52.088;5.084;2022-09-03T03:42:25;14.43;;;13.35;;
17566;SDS011;8901;52.088;5.084;2022-09-03T03:44:52;15.05;;;14.00;;
17566;SDS011;8901;52.088;5.084;2022-09-03T03:47:19;14.45;;;13.55;;
17566;SDS011;8901;52.088;5.084;2022-09-03T03:49:46;15.07;;;13.88;;
17566;SDS011;8901;52.088;5.084;2022-09-03T03:52:13;14.60;;;13.80;;
17566;SDS011;8901;52.088;5.084;2022-09-03T03:54:40;14.73;;;13.82;;
17566;SDS011;8901;52.088;5.084;2022-09-03T03:57:08;14.73;;;13.48;;
17566;SDS011;8901;52.088;5.084;2022-09-03T03:59:35;14.65;;;13.60;;
17566;SDS011;8901;52.088;5.084;2022-09-03T04:02:18;13.88;;;12.98;;
17566;SDS011;8901;52.088;5.084;2022-09-03T04:04:45;15.18;;;14.10;;
17566;SDS011;8901;52.088;5.084;2022-09-03T04:07:12;14.57;;;13.68;;
17566;SDS011;8901;52.088;5.084;2022-09-03T04:09:39;14.00;;;13.20;;
17566;SDS011;8901;52.088;5.084;2022-09-03T04:12:07;14.25;;;13.20;;
17566;SDS011;8901;52.088;5.084;2022-09-03T04:14:34;14.50;;;13.48;;
17566;SDS011;8901;52.088;5.084;2022-09-03T04:17:01;14.57;;;13.57;;
17566;SDS011;8901;52.088;5.084;2022-09-03T04:19:28;14.48;;;13.48;;
17566;SDS011;8901;52.088;5.084;2022-09-03T04:21:55;13.95;;;13.05;;
17566;SDS011;8901;52.088;5.084;2022-09-03T04:24:22;14.30;;;13.10;;
17566;SDS011;8901;52.088;5.084;2022-09-03T04:26:49;14.30;;;13.30;;
17566;SDS011;8901;52.088;5.084;2022-09-03T04:29:19;13.50;;;12.52;;
17566;SDS011;8901;52.088;5.084;2022-09-03T04:31:46;12.93;;;12.23;;
17566;SDS011;8901;52.088;5.084;2022-09-03T04:34:27;14.20;;;13.20;;
17566;SDS011;8901;52.088;5.084;2022-09-03T04:36:54;14.02;;;13.02;;
17566;SDS011;8901;52.088;5.084;2022-09-03T04:39:23;14.23;;;12.98;;
17566;SDS011;8901;52.088;5.084;2022-09-03T04:41:50;14.77;;;13.77;;
17566;SDS011;8901;52.088;5.084;2022-09-03T04:44:18;14.35;;;13.55;;
17566;SDS011;8901;52.088;5.084;2022-09-03T04:46:45;14.57;;;13.68;;
17566;SDS011;8901;52.088;5.084;2022-09-03T04:49:12;14.25;;;13.25;;
17566;SDS011;8901;52.088;5.084;2022-09-03T04:54:17;14.35;;;13.23;;
17566;SDS011;8901;52.088;5.084;2022-09-03T04:56:43;14.65;;;13.75;;
17566;SDS011;8901;52.088;5.084;2022-09-03T04:59:10;14.57;;;13.43;;
17566;SDS011;8901;52.088;5.084;2022-09-03T05:01:39;14.02;;;13.13;;
17566;SDS011;8901;52.088;5.084;2022-09-03T05:04:06;15.40;;;14.20;;
17566;SDS011;8901;52.088;5.084;2022-09-03T05:06:34;14.55;;;13.18;;
17566;SDS011;8901;52.088;5.084;2022-09-03T05:09:02;13.57;;;12.77;;
17566;SDS011;8901;52.088;5.084;2022-09-03T05:11:29;14.40;;;13.43;;
17566;SDS011;8901;52.088;5.084;2022-09-03T05:13:57;14.07;;;13.18;;
17566;SDS011;8901;52.088;5.084;2022-09-03T05:16:25;14.70;;;13.63;;
17566;SDS011;8901;52.088;5.084;2022-09-03T05:18:56;14.27;;;13.48;;
17566;SDS011;8901;52.088;5.084;2022-09-03T05:21:25;13.90;;;12.88;;
17566;SDS011;8901;52.088;5.084;2022-09-03T05:23:52;13.75;;;12.85;;
17566;SDS011;8901;52.088;5.084;2022-09-03T05:26:20;14.23;;;13.32;;
17566;SDS011;8901;52.088;5.084;2022-09-03T05:28:51;13.70;;;12.77;;
17566;SDS011;8901;52.088;5.084;2022-09-03T05:31:19;14.57;;;13.57;;
17566;SDS011;8901;52.088;5.084;2022-09-03T05:33:47;14.18;;;13.27;;
17566;SDS011;8901;52.088;5.084;2022-09-03T05:36:17;14.07;;;13.05;;
17566;SDS011;8901;52.088;5.084;2022-09-03T05:38:46;14.15;;;13.25;;
17566;SDS011;8901;52.088;5.084;2022-09-03T05:41:14;14.30;;;13.50;;
17566;SDS011;8901;52.088;5.084;2022-09-03T05:43:43;13.45;;;12.65;;
17566;SDS011;8901;52.088;5.084;2022-09-03T05:46:10;14.43;;;13.43;;
17566;SDS011;8901;52.088;5.084;2022-09-03T05:48:40;15.13;;;13.95;;
17566;SDS011;8901;52.088;5.084;2022-09-03T05:51:08;14.80;;;13.68;;
17566;SDS011;8901;52.088;5.084;2022-09-03T05:53:38;13.82;;;12.93;;
17566;SDS011;8901;52.088;5.084;2022-09-03T05:56:06;14.48;;;13.40;;
17566;SDS011;8901;52.088;5.084;2022-09-03T06:05:02;15.05;;;13.80;;
17566;SDS011;8901;52.088;5.084;2022-09-03T06:07:29;15.50;;;14.43;;
17566;SDS011;8901;52.088;5.084;2022-09-03T06:09:59;15.32;;;14.23;;
17566;SDS011;8901;52.088;5.084;2022-09-03T06:12:26;13.93;;;13.13;;
17566;SDS011;8901;52.088;5.084;2022-09-03T06:14:53;14.77;;;13.98;;
17566;SDS011;8901;52.088;5.084;2022-09-03T06:17:20;16.10;;;14.82;;
17566;SDS011;8901;52.088;5.084;2022-09-03T06:19:47;15.50;;;14.60;;
17566;SDS011;8901;52.088;5.084;2022-09-03T06:22:14;16.60;;;15.27;;
17566;SDS011;8901;52.088;5.084;2022-09-03T06:24:41;15.32;;;14.20;;
17566;SDS011;8901;52.088;5.084;2022-09-03T06:27:09;16.20;;;14.90;;
17566;SDS011;8901;52.088;5.084;2022-09-03T06:29:36;16.73;;;15.73;;
17566;SDS011;8901;52.088;5.084;2022-09-03T06:32:03;15.70;;;14.80;;
17566;SDS011;8901;52.088;5.084;2022-09-03T06:34:30;15.63;;;14.60;;
17566;SDS011;8901;52.088;5.084;2022-09-03T06:36:57;14.68;;;13.73;;
17566;SDS011;8901;52.088;5.084;2022-09-03T06:39:24;14.95;;;13.98;;
17566;SDS011;8901;52.088;5.084;2022-09-03T06:41:51;14.18;;;13.38;;
17566;SDS011;8901;52.088;5.084;2022-09-03T06:44:20;15.32;;;14.43;;
17566;SDS011;8901;52.088;5.084;2022-09-03T06:46:47;15.35;;;14.38;;
17566;SDS011;8901;52.088;5.084;2022-09-03T06:49:14;15.52;;;14.50;;
17566;SDS011;8901;52.088;5.084;2022-09-03T06:51:41;15.07;;;14.10;;
17566;SDS011;8901;52.088;5.084;2022-09-03T06:54:09;14.85;;;13.75;;
17566;SDS011;8901;52.088;5.084;2022-09-03T06:56:37;15.38;;;14.27;;
17566;SDS011;8901;52.088;5.084;2022-09-03T06:59:06;14.52;;;13.48;;
17566;SDS011;8901;52.088;5.084;2022-09-03T07:01:35;16.17;;;15.18;;
17566;SDS011;8901;52.088;5.084;2022-09-03T07:04:05;14.57;;;13.68;;
17566;SDS011;8901;52.088;5.084;2022-09-03T07:06:34;14.50;;;13.70;;
17566;SDS011;8901;52.088;5.084;2022-09-03T07:09:02;15.25;;;13.63;;
17566;SDS011;8901;52.088;5.084;2022-09-03T07:11:30;15.70;;;14.52;;
17566;SDS011;8901;52.088;5.084;2022-09-03T07:13:57;14.90;;;13.73;;
17566;SDS011;8901;52.088;5.084;2022-09-03T07:16:25;16.25;;;14.88;;
17566;SDS011;8901;52.088;5.084;2022-09-03T07:18:55;15.80;;;14.80;;
17566;SDS011;8901;52.088;5.084;2022-09-03T07:21:25;15.55;;;14.52;;
17566;SDS011;8901;52.088;5.084;2022-09-03T07:23:54;15.30;;;14.05;;
17566;SDS011;8901;52.088;5.084;2022-09-03T07:26:22;15.15;;;14.10;;
17566;SDS011;8901;52.088;5.084;2022-09-03T07:28:50;15.40;;;14.15;;
17566;SDS011;8901;52.088;5.084;2022-09-03T07:31:19;15.30;;;14.30;;
17566;SDS011;8901;52.088;5.084;2022-09-03T07:33:50;24.05;;;14.55;;
17566;SDS011;8901;52.088;5.084;2022-09-03T07:36:21;20.60;;;15.82;;
17566;SDS011;8901;52.088;5.084;2022-09-03T07:38:49;16.92;;;14.80;;
17566;SDS011;8901;52.088;5.084;2022-09-03T07:41:16;16.35;;;14.40;;
17566;SDS011;8901;52.088;5.084;2022-09-03T07:43:44;18.00;;;13.70;;
17566;SDS011;8901;52.088;5.084;2022-09-03T07:46:12;15.48;;;14.10;;
17566;SDS011;8901;52.088;5.084;2022-09-03T07:48:46;14.95;;;13.88;;
17566;SDS011;8901;52.088;5.084;2022-09-03T07:51:15;14.75;;;13.70;;
17566;SDS011;8901;52.088;5.084;2022-09-03T07:53:43;14.73;;;13.73;;
17566;SDS011;8901;52.088;5.084;2022-09-03T07:56:11;15.00;;;13.95;;
17566;SDS011;8901;52.088;5.084;2022-09-03T07:58:39;15.75;;;14.30;;
17566;SDS011;8901;52.088;5.084;2022-09-03T08:01:07;14.95;;;13.98;;
17566;SDS011;8901;52.088;5.084;2022-09-03T08:03:35;15.80;;;14.52;;
17566;SDS011;8901;52.088;5.084;2022-09-03T08:06:03;15.27;;;14.00;;
17566;SDS011;8901;52.088;5.084;2022-09-03T08:08:31;15.05;;;13.95;;
17566;SDS011;8901;52.088;5.084;2022-09-03T08:11:05;15.70;;;14.32;;
17566;SDS011;8901;52.088;5.084;2022-09-03T08:13:35;15.48;;;14.25;;
17566;SDS011;8901;52.088;5.084;2022-09-03T08:16:04;15.07;;;13.90;;
17566;SDS011;8901;52.088;5.084;2022-09-03T08:18:33;15.60;;;14.70;;
17566;SDS011;8901;52.088;5.084;2022-09-03T08:21:02;16.35;;;15.00;;
17566;SDS011;8901;52.088;5.084;2022-09-03T08:23:31;15.73;;;14.60;;
17566;SDS011;8901;52.088;5.084;2022-09-03T08:25:58;16.55;;;15.35;;
17566;SDS011;8901;52.088;5.084;2022-09-03T08:28:26;16.08;;;15.00;;
17566;SDS011;8901;52.088;5.084;2022-09-03T08:30:54;16.30;;;15.15;;
17566;SDS011;8901;52.088;5.084;2022-09-03T08:33:21;16.77;;;15.02;;
17566;SDS011;8901;52.088;5.084;2022-09-03T08:36:02;15.25;;;14.35;;
17566;SDS011;8901;52.088;5.084;2022-09-03T08:38:30;15.85;;;14.75;;
17566;SDS011;8901;52.088;5.084;2022-09-03T08:41:02;16.30;;;15.30;;
17566;SDS011;8901;52.088;5.084;2022-09-03T08:43:38;19.73;;;17.67;;
17566;SDS011;8901;52.088;5.084;2022-09-03T08:46:20;20.10;;;18.63;;
17566;SDS011;8901;52.088;5.084;2022-09-03T08:48:51;15.77;;;14.75;;
17566;SDS011;8901;52.088;5.084;2022-09-03T08:51:18;15.02;;;14.10;;
17566;SDS011;8901;52.088;5.084;2022-09-03T08:53:52;15.82;;;14.73;;
17566;SDS011;8901;52.088;5.084;2022-09-03T08:56:23;16.33;;;14.90;;
17566;SDS011;8901;52.088;5.084;2022-09-03T08:58:53;15.48;;;14.27;;
17566;SDS011;8901;52.088;5.084;2022-09-03T09:01:24;15.55;;;14.55;;
17566;SDS011;8901;52.088;5.084;2022-09-03T09:04:03;15.70;;;14.77;;
17566;SDS011;8901;52.088;5.084;2022-09-03T09:06:38;16.73;;;15.50;;
17566;SDS011;8901;52.088;5.084;2022-09-03T09:09:16;16.08;;;14.73;;
17566;SDS011;8901;52.088;5.084;2022-09-03T09:11:57;15.73;;;14.15;;
17566;SDS011;8901;52.088;5.084;2022-09-03T09:14:35;15.15;;;14.00;;
17566;SDS011;8901;52.088;5.084;2022-09-03T09:17:12;14.50;;;13.60;;
17566;SDS011;8901;52.088;5.084;2022-09-03T09:19:49;14.82;;;13.88;;
17566;SDS011;8901;52.088;5.084;2022-09-03T09:22:23;14.57;;;13.48;;
17566;SDS011;8901;52.088;5.084;2022-09-03T09:24:55;13.85;;;12.95;;
17566;SDS011;8901;52.088;5.084;2022-09-03T09:27:24;14.48;;;13.30;;
17566;SDS011;8901;52.088;5.084;2022-09-03T09:29:52;14.25;;;13.20;;
17566;SDS011;8901;52.088;5.084;2022-09-03T09:32:21;14.57;;;13.77;;
17566;SDS011;8901;52.088;5.084;2022-09-03T09:34:48;13.13;;;12.10;;
17566;SDS011;8901;52.088;5.084;2022-09-03T09:37:15;14.90;;;13.90;;
17566;SDS011;8901;52.088;5.084;2022-09-03T09:39:53;15.82;;;14.90;;
17566;SDS011;8901;52.088;5.084;2022-09-03T09:42:21;15.90;;;15.00;;
17566;SDS011;8901;52.088;5.084;2022-09-03T09:44:48;15.63;;;14.70;;
17566;SDS011;8901;52.088;5.084;2022-09-03T09:47:21;15.90;;;14.80;;
17566;SDS011;8901;52.088;5.084;2022-09-03T09:49:52;16.48;;;15.15;;
17566;SDS011;8901;52.088;5.084;2022-09-03T09:52:20;16.65;;;15.45;;
17566;SDS011;8901;52.088;5.084;2022-09-03T09:54:50;16.08;;;15.18;;
17566;SDS011;8901;52.088;5.084;2022-09-03T09:57:21;15.98;;;14.90;;
17566;SDS011;8901;52.088;5.084;2022-09-03T09:59:49;16.80;;;15.80;;
17566;SDS011;8901;52.088;5.084;2022-09-03T10:02:33;16.27;;;15.18;;
17566;SDS011;8901;52.088;5.084;2022-09-03T10:05:11;16.85;;;15.63;;
17566;SDS011;8901;52.088;5.084;2022-09-03T10:07:39;15.77;;;14.77;;
17566;SDS011;8901;52.088;5.084;2022-09-03T10:10:12;16.17;;;14.90;;
17566;SDS011;8901;52.088;5.084;2022-09-03T10:12:43;16.15;;;15.10;;
17566;SDS011;8901;52.088;5.084;2022-09-03T10:15:19;16.30;;;14.98;;
17566;SDS011;8901;52.088;5.084;2022-09-03T10:17:59;16.50;;;15.43;;
17566;SDS011;8901;52.088;5.084;2022-09-03T10:20:33;15.98;;;14.50;;
17566;SDS011;8901;52.088;5.084;2022-09-03T10:23:12;15.73;;;14.68;;
17566;SDS011;8901;52.088;5.084;2022-09-03T10:25:50;16.30;;;15.30;;
17566;SDS011;8901;52.088;5.084;2022-09-03T10:28:28;17.15;;;15.23;;
17566;SDS011;8901;52.088;5.084;2022-09-03T10:31:11;15.45;;;14.35;;
17566;SDS011;8901;52.088;5.084;2022-09-03T10:33:59;14.95;;;14.00;;
17566;SDS011;8901;52.088;5.084;2022-09-03T10:36:33;14.45;;;13.55;;
17566;SDS011;8901;52.088;5.084;2022-09-03T10:39:05;16.38;;;14.70;;
17566;SDS011;8901;52.088;5.084;2022-09-03T10:41:41;16.83;;;15.40;;
17566;SDS011;8901;52.088;5.084;2022-09-03T10:44:38;15.55;;;14.57;;
17566;SDS011;8901;52.088;5.084;2022-09-03T10:47:29;15.98;;;14.43;;
17566;SDS011;8901;52.088;5.084;2022-09-03T10:50:11;16.67;;;14.90;;
17566;SDS011;8901;52.088;5.084;2022-09-03T10:52:47;16.15;;;15.15;;
17566;SDS011;8901;52.088;5.084;2022-09-03T10:55:34;16.33;;;15.00;;
17566;SDS011;8901;52.088;5.084;2022-09-03T10:58:14;16.58;;;15.48;;
17566;SDS011;8901;52.088;5.084;2022-09-03T11:00:52;16.02;;;14.82;;
17566;SDS011;8901;52.088;5.084;2022-09-03T11:03:32;17.08;;;15.60;;
17566;SDS011;8901;52.088;5.084;2022-09-03T11:06:14;16.05;;;15.00;;
17566;SDS011;8901;52.088;5.084;2022-09-03T11:08:47;16.42;;;15.15;;
17566;SDS011;8901;52.088;5.084;2022-09-03T11:11:20;15.70;;;14.80;;
17566;SDS011;8901;52.088;5.084;2022-09-03T11:13:52;14.85;;;13.63;;
17566;SDS011;8901;52.088;5.084;2022-09-03T11:16:24;15.90;;;14.80;;
17566;SDS011;8901;52.088;5.084;2022-09-03T11:18:56;16.98;;;15.98;;
17566;SDS011;8901;52.088;5.084;2022-09-03T11:21:30;16.55;;;15.15;;
17566;SDS011;8901;52.088;5.084;2022-09-03T11:24:02;15.35;;;14.55;;
17566;SDS011;8901;52.088;5.084;2022-09-03T11:26:32;16.92;;;15.75;;
17566;SDS011;8901;52.088;5.084;2022-09-03T11:29:02;16.95;;;15.85;;
17566;SDS011;8901;52.088;5.084;2022-09-03T11:31:36;16.02;;;15.05;;
17566;SDS011;8901;52.088;5.084;2022-09-03T11:34:12;16.48;;;15.48;;
17566;SDS011;8901;52.088;5.084;2022-09-03T11:36:42;16.95;;;15.82;;
17566;SDS011;8901;52.088;5.084;2022-09-03T11:39:12;16.88;;;15.88;;
17566;SDS011;8901;52.088;5.084;2022-09-03T11:41:44;16.90;;;15.90;;
17566;SDS011;8901;52.088;5.084;2022-09-03T11:44:23;16.85;;;15.80;;
17566;SDS011;8901;52.088;5.084;2022-09-03T11:46:52;17.02;;;15.90;;
17566;SDS011;8901;52.088;5.084;2022-09-03T11:49:24;18.02;;;16.40;;
17566;SDS011;8901;52.088;5.084;2022-09-03T11:51:56;17.92;;;16.80;;
17566;SDS011;8901;52.088;5.084;2022-09-03T11:54:26;17.30;;;16.10;;
17566;SDS011;8901;52.088;5.084;2022-09-03T11:57:04;18.80;;;17.35;;
17566;SDS011;8901;52.088;5.084;2022-09-03T11:59:35;17.33;;;16.23;;
17566;SDS011;8901;52.088;5.084;2022-09-03T12:02:04;17.20;;;16.02;;
17566;SDS011;8901;52.088;5.084;2022-09-03T12:04:42;17.27;;;16.20;;
17566;SDS011;8901;52.088;5.084;2022-09-03T12:07:30;16.80;;;15.80;;
17566;SDS011;8901;52.088;5.084;2022-09-03T12:10:12;17.85;;;16.42;;
17566;SDS011;8901;52.088;5.084;2022-09-03T12:12:58;17.10;;;16.00;;
17566;SDS011;8901;52.088;5.084;2022-09-03T12:18:46;15.88;;;14.98;;
17566;SDS011;8901;52.088;5.084;2022-09-03T12:21:17;15.85;;;14.85;;
17566;SDS011;8901;52.088;5.084;2022-09-03T12:23:47;15.88;;;14.98;;
17566;SDS011;8901;52.088;5.084;2022-09-03T12:26:17;17.25;;;15.82;;
17566;SDS011;8901;52.088;5.084;2022-09-03T12:28:49;17.13;;;16.08;;
17566;SDS011;8901;52.088;5.084;2022-09-03T12:31:18;16.77;;;15.52;;
17566;SDS011;8901;52.088;5.084;2022-09-03T12:33:47;16.83;;;15.85;;
17566;SDS011;8901;52.088;5.084;2022-09-03T12:36:15;17.63;;;16.42;;
17566;SDS011;8901;52.088;5.084;2022-09-03T12:38:42;17.50;;;16.48;;
17566;SDS011;8901;52.088;5.084;2022-09-03T12:44:02;17.48;;;16.38;;
17566;SDS011;8901;52.088;5.084;2022-09-03T12:46:29;16.80;;;15.55;;
17566;SDS011;8901;52.088;5.084;2022-09-03T12:48:58;17.05;;;15.70;;
17566;SDS011;8901;52.088;5.084;2022-09-03T12:51:32;17.98;;;16.70;;
17566;SDS011;8901;52.088;5.084;2022-09-03T12:54:01;17.70;;;16.63;;
17566;SDS011;8901;52.088;5.084;2022-09-03T12:56:32;17.95;;;16.65;;
17566;SDS011;8901;52.088;5.084;2022-09-03T12:59:01;17.67;;;16.58;;
17566;SDS011;8901;52.088;5.084;2022-09-03T13:01:42;17.63;;;16.55;;
17566;SDS011;8901;52.088;5.084;2022-09-03T13:04:13;17.70;;;16.50;;
17566;SDS011;8901;52.088;5.084;2022-09-03T13:06:46;17.40;;;16.10;;
17566;SDS011;8901;52.088;5.084;2022-09-03T13:09:18;17.30;;;15.88;;
17566;SDS011;8901;52.088;5.084;2022-09-03T13:11:49;18.30;;;17.08;;
17566;SDS011;8901;52.088;5.084;2022-09-03T13:14:19;17.33;;;16.23;;
17566;SDS011;8901;52.088;5.084;2022-09-03T13:17:02;17.05;;;15.52;;
17566;SDS011;8901;52.088;5.084;2022-09-03T13:19:45;16.13;;;15.10;;
17566;SDS011;8901;52.088;5.084;2022-09-03T13:22:24;17.50;;;16.10;;
17566;SDS011;8901;52.088;5.084;2022-09-03T13:25:02;17.77;;;16.30;;
17566;SDS011;8901;52.088;5.084;2022-09-03T13:27:42;18.13;;;16.50;;
17566;SDS011;8901;52.088;5.084;2022-09-03T13:30:20;17.95;;;16.73;;
17566;SDS011;8901;52.088;5.084;2022-09-03T13:32:52;17.67;;;16.58;;
17566;SDS011;8901;52.088;5.084;2022-09-03T13:35:29;17.60;;;16.27;;
17566;SDS011;8901;52.088;5.084;2022-09-03T13:38:03;17.45;;;16.20;;
17566;SDS011;8901;52.088;5.084;2022-09-03T13:40:35;17.45;;;16.40;;
17566;SDS011;8901;52.088;5.084;2022-09-03T13:43:12;17.88;;;16.60;;
17566;SDS011;8901;52.088;5.084;2022-09-03T13:45:49;17.85;;;16.65;;
17566;SDS011;8901;52.088;5.084;2022-09-03T13:48:20;17.83;;;16.77;;
17566;SDS011;8901;52.088;5.084;2022-09-03T13:51:10;18.23;;;16.90;;
17566;SDS011;8901;52.088;5.084;2022-09-03T13:53:43;17.08;;;15.93;;
17566;SDS011;8901;52.088;5.084;2022-09-03T13:56:19;17.25;;;16.15;;
17566;SDS011;8901;52.088;5.084;2022-09-03T13:58:55;18.55;;;17.15;;
17566;SDS011;8901;52.088;5.084;2022-09-03T14:01:32;18.23;;;16.80;;
17566;SDS011;8901;52.088;5.084;2022-09-03T14:04:10;18.52;;;17.40;;
17566;SDS011;8901;52.088;5.084;2022-09-03T14:06:45;16.80;;;15.70;;
17566;SDS011;8901;52.088;5.084;2022-09-03T14:09:25;18.10;;;16.80;;
17566;SDS011;8901;52.088;5.084;2022-09-03T14:12:01;16.95;;;15.75;;
17566;SDS011;8901;52.088;5.084;2022-09-03T14:14:40;18.30;;;16.67;;
17566;SDS011;8901;52.088;5.084;2022-09-03T14:17:22;18.90;;;17.52;;
17566;SDS011;8901;52.088;5.084;2022-09-03T14:19:58;19.08;;;17.75;;
17566;SDS011;8901;52.088;5.084;2022-09-03T14:22:31;18.70;;;17.48;;
17566;SDS011;8901;52.088;5.084;2022-09-03T14:25:12;19.02;;;17.35;;
17566;SDS011;8901;52.088;5.084;2022-09-03T14:27:41;19.65;;;18.38;;
17566;SDS011;8901;52.088;5.084;2022-09-03T14:30:18;19.35;;;18.05;;
17566;SDS011;8901;52.088;5.084;2022-09-03T14:32:53;19.52;;;18.13;;
17566;SDS011;8901;52.088;5.084;2022-09-03T14:35:34;18.67;;;17.58;;
17566;SDS011;8901;52.088;5.084;2022-09-03T14:38:13;18.83;;;17.63;;
17566;SDS011;8901;52.088;5.084;2022-09-03T14:40:58;18.30;;;17.10;;
17566;SDS011;8901;52.088;5.084;2022-09-03T14:43:38;18.30;;;17.13;;
17566;SDS011;8901;52.088;5.084;2022-09-03T14:46:26;19.00;;;17.70;;
17566;SDS011;8901;52.088;5.084;2022-09-03T14:49:06;17.90;;;16.85;;
17566;SDS011;8901;52.088;5.084;2022-09-03T14:51:45;18.15;;;17.05;;
17566;SDS011;8901;52.088;5.084;2022-09-03T14:54:29;17.58;;;16.38;;
17566;SDS011;8901;52.088;5.084;2022-09-03T14:57:17;18.58;;;17.27;;
17566;SDS011;8901;52.088;5.084;2022-09-03T14:59:59;18.08;;;16.98;;
17566;SDS011;8901;52.088;5.084;2022-09-03T15:05:44;19.15;;;17.75;;
17566;SDS011;8901;52.088;5.084;2022-09-03T15:08:39;18.85;;;17.75;;
17566;SDS011;8901;52.088;5.084;2022-09-03T15:11:16;19.90;;;18.42;;
17566;SDS011;8901;52.088;5.084;2022-09-03T15:13:47;20.17;;;18.90;;
17566;SDS011;8901;52.088;5.084;2022-09-03T15:16:30;19.42;;;18.20;;
17566;SDS011;8901;52.088;5.084;2022-09-03T15:19:10;20.17;;;18.80;;
17566;SDS011;8901;52.088;5.084;2022-09-03T15:21:51;20.85;;;19.27;;
17566;SDS011;8901;52.088;5.084;2022-09-03T15:24:34;20.85;;;19.25;;
17566;SDS011;8901;52.088;5.084;2022-09-03T15:27:15;20.02;;;18.83;;